Time,TemperatureF,DewpointF,PressureIn,WindDirection,WindDirectionDegrees,WindSpeedMPH,WindSpeedGustMPH,Humidity,HourlyPrecipIn,Conditions,Clouds,dailyrainin,SoftwareType,DateUTC
2013-01-13 00:03:00,21.4,14.7,29.94,NNE,22,5.8,-999.0,75,-99.99,,,0.00,Acu-Link.com,2013-01-13 06:03:00,
2013-01-13 00:19:00,20.8,14.1,29.94,NNW,337,3.7,-999.0,75,-99.99,,,0.00,Acu-Link.com,2013-01-13 06:19:00,
2013-01-13 00:34:00,20.8,14.5,29.93,West,270,8.3,-999.0,76,-99.99,,,0.00,Acu-Link.com,2013-01-13 06:34:00,
2013-01-13 00:49:00,20.5,14.2,29.95,NNW,337,6.3,-999.0,76,-99.99,,,0.00,Acu-Link.com,2013-01-13 06:49:00,
2013-01-13 01:04:00,19.9,13.6,29.96,NNW,337,5.8,-999.0,76,-99.99,,,0.00,Acu-Link.com,2013-01-13 07:04:00,
2013-01-13 01:19:00,19.6,13.3,29.97,North,0,5.8,-999.0,76,-99.99,,,0.00,Acu-Link.com,2013-01-13 07:19:00,
2013-01-13 01:34:00,18.9,12.6,29.98,NNE,22,4.7,-999.0,76,-99.99,,,0.00,Acu-Link.com,2013-01-13 07:34:00,
2013-01-13 01:49:00,18.7,12.4,30.00,North,0,4.7,-999.0,76,-99.99,,,0.00,Acu-Link.com,2013-01-13 07:49:00,
2013-01-13 02:04:00,18.3,12.0,30.01,NNW,337,3.2,-999.0,76,-99.99,,,0.00,Acu-Link.com,2013-01-13 08:04:00,
2013-01-13 02:20:00,18.3,12.0,30.00,NNW,337,5.8,-999.0,76,-99.99,,,0.00,Acu-Link.com,2013-01-13 08:20:00,
2013-01-13 02:35:00,18.1,12.1,29.97,NNW,337,2.2,-999.0,77,-99.99,,,0.00,Acu-Link.com,2013-01-13 08:35:00,
2013-01-13 02:50:00,18.5,12.5,30.00,NNW,337,6.3,-999.0,77,-99.99,,,0.00,Acu-Link.com,2013-01-13 08:50:00,
2013-01-13 03:09:00,18.3,11.7,30.01,NNW,337,6.3,-999.0,75,-99.99,,,0.00,Acu-Link.com,2013-01-13 09:09:00,
2013-01-13 03:24:00,18.5,11.9,30.00,NNW,337,6.8,-999.0,75,-99.99,,,0.00,Acu-Link.com,2013-01-13 09:24:00,
2013-01-13 03:39:00,18.0,11.4,29.98,NW,315,3.7,-999.0,75,-99.99,,,0.00,Acu-Link.com,2013-01-13 09:39:00,
2013-01-13 03:54:00,17.1,10.9,29.99,NNW,337,3.7,-999.0,76,-99.99,,,0.00,Acu-Link.com,2013-01-13 09:54:00,
2013-01-13 04:10:00,17.1,11.2,29.99,NW,315,2.2,-999.0,77,-99.99,,,0.00,Acu-Link.com,2013-01-13 10:10:00,
2013-01-13 04:25:00,16.9,11.0,29.98,NNW,337,6.3,-999.0,77,-99.99,,,0.00,Acu-Link.com,2013-01-13 10:25:00,
2013-01-13 04:40:00,16.9,9.5,30.02,NNW,337,4.2,-999.0,72,-99.99,,,0.00,Acu-Link.com,2013-01-13 10:40:00,
2013-01-13 04:55:00,16.3,8.6,30.01,NW,315,4.2,-999.0,71,-99.99,,,0.00,Acu-Link.com,2013-01-13 10:55:00,
2013-01-13 05:10:00,16.2,8.2,30.02,North,0,4.2,-999.0,70,-99.99,,,0.00,Acu-Link.com,2013-01-13 11:10:00,
2013-01-13 05:25:00,15.6,7.3,30.04,NNW,337,1.7,-999.0,69,-99.99,,,0.00,Acu-Link.com,2013-01-13 11:25:00,
2013-01-13 05:40:00,15.4,7.4,30.06,North,0,3.7,-999.0,70,-99.99,,,0.00,Acu-Link.com,2013-01-13 11:40:00,
2013-01-13 05:55:00,15.3,7.3,30.06,North,0,3.7,-999.0,70,-99.99,,,0.00,Acu-Link.com,2013-01-13 11:55:00,
2013-01-13 06:10:00,14.2,6.6,30.07,NNW,337,3.2,-999.0,71,-99.99,,,0.00,Acu-Link.com,2013-01-13 12:10:00,
2013-01-13 06:26:00,13.6,6.6,30.07,NNE,22,2.7,-999.0,73,-99.99,,,0.00,Acu-Link.com,2013-01-13 12:26:00,
2013-01-13 06:41:00,13.1,6.1,30.08,NNE,22,2.7,-999.0,73,-99.99,,,0.00,Acu-Link.com,2013-01-13 12:41:00,
2013-01-13 06:56:00,12.6,5.9,30.10,North,0,2.2,-999.0,74,-99.99,,,0.00,Acu-Link.com,2013-01-13 12:56:00,
2013-01-13 07:11:00,12.2,5.8,30.09,West,270,1.7,-999.0,75,-99.99,,,0.00,Acu-Link.com,2013-01-13 13:11:00,
2013-01-13 07:26:00,11.5,5.4,30.09,North,0,1.7,-999.0,76,-99.99,,,0.00,Acu-Link.com,2013-01-13 13:26:00,
2013-01-13 07:41:00,11.3,5.5,30.10,NNW,337,3.2,-999.0,77,-99.99,,,0.00,Acu-Link.com,2013-01-13 13:41:00,
2013-01-13 07:56:00,11.3,5.2,30.08,NNW,337,2.2,-999.0,76,-99.99,,,0.00,Acu-Link.com,2013-01-13 13:56:00,
2013-01-13 08:11:00,13.3,6.9,30.08,NNW,337,3.2,-999.0,75,-99.99,,,0.00,Acu-Link.com,2013-01-13 14:11:00,
2013-01-13 08:26:00,14.7,7.6,30.09,North,0,3.2,-999.0,73,-99.99,,,0.00,Acu-Link.com,2013-01-13 14:26:00,
2013-01-13 08:42:00,15.4,7.7,30.09,NNE,22,3.7,-999.0,71,-99.99,,,0.00,Acu-Link.com,2013-01-13 14:42:00,
2013-01-13 08:57:00,16.0,8.0,30.09,West,270,3.7,-999.0,70,-99.99,,,0.00,Acu-Link.com,2013-01-13 14:57:00,
2013-01-13 09:12:00,16.3,8.3,30.12,NE,45,4.7,-999.0,70,-99.99,,,0.00,Acu-Link.com,2013-01-13 15:12:00,
2013-01-13 09:27:00,16.5,8.5,30.12,NNW,337,6.8,-999.0,70,-99.99,,,0.00,Acu-Link.com,2013-01-13 15:27:00,
2013-01-13 09:42:00,17.4,9.3,30.12,WNW,292,7.3,-999.0,70,-99.99,,,0.00,Acu-Link.com,2013-01-13 15:42:00,
2013-01-13 09:57:00,18.5,10.1,30.13,NNE,22,3.7,-999.0,69,-99.99,,,0.00,Acu-Link.com,2013-01-13 15:57:00,
2013-01-13 10:12:00,18.5,10.1,30.14,NNE,22,3.7,-999.0,69,-99.99,,,0.00,Acu-Link.com,2013-01-13 16:12:00,
2013-01-13 10:27:00,19.2,10.7,30.15,ESE,112,5.3,-999.0,69,-99.99,,,0.00,Acu-Link.com,2013-01-13 16:27:00,
2013-01-13 10:42:00,19.9,11.4,30.16,ESE,112,2.2,-999.0,69,-99.99,,,0.00,Acu-Link.com,2013-01-13 16:42:00,
2013-01-13 10:58:00,19.8,11.3,30.15,ESE,112,4.2,-999.0,69,-99.99,,,0.00,Acu-Link.com,2013-01-13 16:58:00,
2013-01-13 11:13:00,19.8,11.6,30.14,NNE,22,3.7,-999.0,70,-99.99,,,0.00,Acu-Link.com,2013-01-13 17:13:00,
2013-01-13 11:28:00,20.1,11.6,30.13,NNW,337,4.7,-999.0,69,-99.99,,,0.00,Acu-Link.com,2013-01-13 17:28:00,
2013-01-13 11:43:00,19.2,10.7,30.13,NNE,22,4.2,-999.0,69,-99.99,,,0.00,Acu-Link.com,2013-01-13 17:43:00,
2013-01-13 11:58:00,20.7,12.2,30.12,NNE,22,3.7,-999.0,69,-99.99,,,0.00,Acu-Link.com,2013-01-13 17:58:00,
2013-01-13 12:13:00,21.2,12.6,30.12,SSW,202,2.2,-999.0,69,-99.99,,,0.00,Acu-Link.com,2013-01-13 18:13:00,
2013-01-13 12:29:00,21.0,12.1,30.11,NE,45,4.7,-999.0,68,-99.99,,,0.00,Acu-Link.com,2013-01-13 18:29:00,
2013-01-13 12:44:00,22.1,13.2,30.12,NNE,22,4.7,-999.0,68,-99.99,,,0.00,Acu-Link.com,2013-01-13 18:44:00,
2013-01-13 12:59:00,23.0,13.7,30.11,ESE,112,3.2,-999.0,67,-99.99,,,0.00,Acu-Link.com,2013-01-13 18:59:00,
2013-01-13 13:14:00,22.8,13.8,30.10,ESE,112,3.7,-999.0,68,-99.99,,,0.00,Acu-Link.com,2013-01-13 19:14:00,
2013-01-13 13:29:00,23.9,14.9,30.12,SSE,157,3.7,-999.0,68,-99.99,,,0.00,Acu-Link.com,2013-01-13 19:29:00,
2013-01-13 13:44:00,24.4,15.0,30.12,ENE,67,3.7,-999.0,67,-99.99,,,0.00,Acu-Link.com,2013-01-13 19:44:00,
2013-01-13 13:59:00,24.3,14.6,30.12,NW,315,3.7,-999.0,66,-99.99,,,0.00,Acu-Link.com,2013-01-13 19:59:00,
2013-01-13 14:14:00,24.3,14.6,30.12,ENE,67,4.2,-999.0,66,-99.99,,,0.00,Acu-Link.com,2013-01-13 20:14:00,
2013-01-13 14:29:00,24.4,14.0,30.13,NNW,337,2.2,-999.0,64,-99.99,,,0.00,Acu-Link.com,2013-01-13 20:29:00,
2013-01-13 14:45:00,24.1,13.7,30.13,West,270,2.7,-999.0,64,-99.99,,,0.00,Acu-Link.com,2013-01-13 20:45:00,
2013-01-13 15:00:00,25.3,14.9,30.14,North,0,4.7,-999.0,64,-99.99,,,0.00,Acu-Link.com,2013-01-13 21:00:00,
2013-01-13 15:15:00,24.4,13.6,30.15,NE,45,4.2,-999.0,63,-99.99,,,0.00,Acu-Link.com,2013-01-13 21:15:00,
2013-01-13 15:30:00,24.6,14.2,30.14,North,0,2.2,-999.0,64,-99.99,,,0.00,Acu-Link.com,2013-01-13 21:30:00,
2013-01-13 15:45:00,25.5,14.7,30.15,West,270,3.2,-999.0,63,-99.99,,,0.00,Acu-Link.com,2013-01-13 21:45:00,
2013-01-13 16:00:00,25.0,13.8,30.15,NE,45,3.2,-999.0,62,-99.99,,,0.00,Acu-Link.com,2013-01-13 22:00:00,
2013-01-13 16:15:00,25.7,13.8,30.16,North,0,3.2,-999.0,60,-99.99,,,0.00,Acu-Link.com,2013-01-13 22:15:00,
2013-01-13 16:30:00,25.9,14.0,30.16,South,180,1.7,-999.0,60,-99.99,,,0.00,Acu-Link.com,2013-01-13 22:30:00,
2013-01-13 16:45:00,25.3,13.4,30.17,ENE,67,1.7,-999.0,60,-99.99,,,0.00,Acu-Link.com,2013-01-13 22:45:00,
2013-01-13 17:01:00,23.5,12.4,30.18,ENE,67,2.2,-999.0,62,-99.99,,,0.00,Acu-Link.com,2013-01-13 23:01:00,
2013-01-13 17:16:00,21.7,11.4,30.17,WSW,247,0.0,-999.0,64,-99.99,,,0.00,Acu-Link.com,2013-01-13 23:16:00,
2013-01-13 17:31:00,20.1,11.3,30.18,NE,45,0.0,-999.0,68,-99.99,,,0.00,Acu-Link.com,2013-01-13 23:31:00,
2013-01-13 17:46:00,18.9,10.8,30.18,NNE,22,0.0,-999.0,70,-99.99,,,0.00,Acu-Link.com,2013-01-13 23:46:00,
2013-01-13 18:01:00,18.0,10.2,30.19,NNW,337,0.0,-999.0,71,-99.99,,,0.00,Acu-Link.com,2013-01-14 00:01:00,
2013-01-13 18:16:00,17.2,9.8,30.19,ENE,67,0.0,-999.0,72,-99.99,,,0.00,Acu-Link.com,2013-01-14 00:16:00,
2013-01-13 18:31:00,16.7,9.6,30.19,ENE,67,0.0,-999.0,73,-99.99,,,0.00,Acu-Link.com,2013-01-14 00:31:00,
2013-01-13 18:46:00,16.2,9.4,30.20,East,90,0.0,-999.0,74,-99.99,,,0.00,Acu-Link.com,2013-01-14 00:46:00,
2013-01-13 19:01:00,15.6,9.1,30.21,West,270,0.0,-999.0,75,-99.99,,,0.00,Acu-Link.com,2013-01-14 01:01:00,
2013-01-13 19:17:00,15.1,8.9,30.20,NNE,22,0.0,-999.0,76,-99.99,,,0.00,Acu-Link.com,2013-01-14 01:17:00,
2013-01-13 19:32:00,14.7,8.5,30.19,NNE,22,0.0,-999.0,76,-99.99,,,0.00,Acu-Link.com,2013-01-14 01:32:00,
2013-01-13 19:47:00,15.1,8.9,30.21,NNW,337,1.7,-999.0,76,-99.99,,,0.00,Acu-Link.com,2013-01-14 01:47:00,
2013-01-13 20:02:00,15.3,8.8,30.21,NNW,337,0.0,-999.0,75,-99.99,,,0.00,Acu-Link.com,2013-01-14 02:02:00,
2013-01-13 20:17:00,14.7,7.9,30.20,NE,45,0.0,-999.0,74,-99.99,,,0.00,Acu-Link.com,2013-01-14 02:17:00,
2013-01-13 20:32:00,14.5,8.0,30.21,West,270,0.0,-999.0,75,-99.99,,,0.00,Acu-Link.com,2013-01-14 02:32:00,
2013-01-13 20:47:00,13.8,7.9,30.22,West,270,0.0,-999.0,77,-99.99,,,0.00,Acu-Link.com,2013-01-14 02:47:00,
2013-01-13 21:02:00,12.9,7.6,30.23,WSW,247,0.0,-999.0,79,-99.99,,,0.00,Acu-Link.com,2013-01-14 03:02:00,
2013-01-13 21:17:00,12.0,8.1,30.23,NNW,337,0.0,-999.0,84,-99.99,,,0.00,Acu-Link.com,2013-01-14 03:17:00,
2013-01-13 21:33:00,11.7,7.8,30.23,NNE,22,0.0,-999.0,84,-99.99,,,0.00,Acu-Link.com,2013-01-14 03:33:00,
2013-01-13 21:48:00,12.4,8.5,30.23,NNE,22,0.0,-999.0,84,-99.99,,,0.00,Acu-Link.com,2013-01-14 03:48:00,
2013-01-13 22:03:00,13.1,8.4,30.23,NNW,337,1.7,-999.0,81,-99.99,,,0.00,Acu-Link.com,2013-01-14 04:03:00,
2013-01-13 22:18:00,13.3,7.7,30.22,NNE,22,0.0,-999.0,78,-99.99,,,0.00,Acu-Link.com,2013-01-14 04:18:00,
2013-01-13 22:33:00,13.3,7.7,30.24,NNE,22,0.0,-999.0,78,-99.99,,,0.00,Acu-Link.com,2013-01-14 04:33:00,
2013-01-13 22:48:00,12.7,7.2,30.24,ESE,112,0.0,-999.0,78,-99.99,,,0.00,Acu-Link.com,2013-01-14 04:48:00,
2013-01-13 23:03:00,11.3,6.6,30.25,SW,225,0.0,-999.0,81,-99.99,,,0.00,Acu-Link.com,2013-01-14 05:03:00,
2013-01-13 23:18:00,10.4,6.5,30.26,West,270,0.0,-999.0,84,-99.99,,,0.00,Acu-Link.com,2013-01-14 05:18:00,
2013-01-13 23:33:00,9.7,6.1,30.27,ESE,112,0.0,-999.0,85,-99.99,,,0.00,Acu-Link.com,2013-01-14 05:33:00,
2013-01-13 23:49:00,10.4,7.3,30.27,NNE,22,0.0,-999.0,87,-99.99,,,0.00,Acu-Link.com,2013-01-14 05:49:00,